Time;durP1;ratioP1;P1;durP2;ratioP2;P2;SDS_P1;SDS_P2;PMS_P1;PMS_P2;Temp;Humidity;BMP_temperature;BMP_pressure;BME280_temperature;BME280_humidity;BME280_pressure;Samples;Min_cycle;Max_cycle;Signal;HPM_P1;HPM_P2
2023/02/03 00:00:12;;;;;;;;;2.33;1.50;;;;;11.25;58.75;103250.53;2005878;28;2749236;-75
2023/02/03 00:01:25;;;;;;;;;1.00;1.00;;;;;11.24;58.75;103256.66;2015318;28;2726295;-75
2023/02/03 00:02:38;;;;;;;;;2.00;1.00;;;;;11.23;58.71;103258.44;2037209;28;2734123;-75
2023/02/03 00:03:52;;;;;;;;;4.17;0.50;;;;;11.21;58.71;103248.78;2025354;28;2746090;-75
2023/02/03 00:05:05;;;;;;;;;1.00;1.00;;;;;11.20;59.00;103253.16;2007267;28;2737766;-75
2023/02/03 00:06:19;;;;;;;;;1.67;1.67;;;;;11.20;59.04;103255.78;2036050;28;2753811;-75
2023/02/03 00:07:33;;;;;;;;;0.50;0.50;;;;;11.19;58.88;103255.75;2015701;28;2716937;-75
2023/02/03 00:08:48;;;;;;;;;2.33;2.33;;;;;11.18;59.08;103257.53;2036743;28;2741920;-75
2023/02/03 00:10:01;;;;;;;;;0.83;0.83;;;;;11.18;59.04;103262.78;2015044;28;2737816;-75
2023/02/03 00:11:14;;;;;;;;;0.33;0.33;;;;;11.17;59.17;103258.38;2038404;28;2724221;-75
2023/02/03 00:12:28;;;;;;;;;1.83;1.50;;;;;11.17;59.37;103257.50;2032692;28;2733692;-75
2023/02/03 00:13:41;;;;;;;;;1.50;0.50;;;;;11.16;59.69;103253.97;2030294;28;2726343;-75
2023/02/03 00:14:54;;;;;;;;;0.33;0.33;;;;;11.17;59.50;103261.03;2032951;28;2733623;-75
2023/02/03 00:16:07;;;;;;;;;2.33;1.50;;;;;11.13;59.81;103257.50;2034616;28;2752372;-75
2023/02/03 00:17:20;;;;;;;;;1.00;1.00;;;;;11.13;59.66;103259.25;2014675;28;2732577;-75
2023/02/03 00:18:33;;;;;;;;;2.83;1.00;;;;;11.12;60.00;103268.00;2019862;28;2746087;-75
2023/02/03 00:19:47;;;;;;;;;3.83;1.17;;;;;11.11;60.13;103272.38;1997357;28;2753397;-75
2023/02/03 00:21:00;;;;;;;;;0.50;0.50;;;;;11.12;60.16;103273.28;2029750;28;2731555;-75
2023/02/03 00:22:13;;;;;;;;;2.17;1.50;;;;;11.11;60.15;103263.63;2028254;28;2744016;-75
2023/02/03 00:23:30;;;;;;;;;1.00;1.00;;;;;11.11;60.12;103264.50;1998030;28;2726311;-75
2023/02/03 00:24:43;;;;;;;;;1.17;0.50;;;;;11.12;60.20;103268.00;2000050;28;2731531;-75
2023/02/03 00:26:11;;;;;;;;;2.67;1.67;;;;;11.13;60.00;103260.13;2018959;28;2748178;-75
2023/02/03 00:27:25;;;;;;;;;2.67;1.83;;;;;11.14;60.16;103259.25;2023841;28;2752355;-75
2023/02/03 00:28:39;;;;;;;;;2.00;1.00;;;;;11.14;60.21;103259.25;2027269;28;2746097;-75
2023/02/03 00:29:52;;;;;;;;;1.50;1.50;;;;;11.15;60.27;103257.50;2022034;28;2745065;-75
2023/02/03 00:31:05;;;;;;;;;1.83;0.83;;;;;11.14;60.09;103258.38;2029015;28;2738819;-75
2023/02/03 00:32:18;;;;;;;;;1.50;1.33;;;;;11.16;60.20;103258.38;2037639;28;2735702;-75
2023/02/03 00:33:32;;;;;;;;;1.33;1.33;;;;;11.15;60.25;103252.25;2010262;28;2741955;-75
2023/02/03 00:34:45;;;;;;;;;4.50;1.50;;;;;11.17;60.55;103254.88;2028900;28;2750281;-75
2023/02/03 00:36:04;;;;;;;;;0.50;0.50;;;;;11.16;60.27;103253.97;2010288;28;2725275;-75
2023/02/03 00:37:18;;;;;;;;;2.17;0.83;;;;;11.16;60.41;103251.34;2037786;28;2735717;-75
2023/02/03 00:38:31;;;;;;;;;1.00;1.00;;;;;11.17;60.57;103257.50;2037908;28;2722196;-75
2023/02/03 00:39:44;;;;;;;;;1.67;1.50;;;;;11.16;60.51;103258.38;2036283;28;2741963;-75
2023/02/03 00:40:57;;;;;;;;;1.83;1.00;;;;;11.14;60.64;103259.25;2037088;28;2735682;-75
2023/02/03 00:42:10;;;;;;;;;1.50;1.50;;;;;11.13;60.99;103254.00;2013788;28;2736760;-75
2023/02/03 00:43:24;;;;;;;;;1.67;1.00;;;;;11.11;60.40;103250.47;2029006;28;2729487;-75
2023/02/03 00:44:37;;;;;;;;;1.67;0.67;;;;;11.07;60.94;103253.94;2007798;28;2730985;-75
2023/02/03 00:45:50;;;;;;;;;1.00;1.00;;;;;11.06;60.78;103244.31;2036040;28;2739876;-75
2023/02/03 00:47:03;;;;;;;;;1.17;1.00;;;;;11.04;60.96;103244.28;2037764;28;2725270;-75
2023/02/03 00:48:16;;;;;;;;;1.83;1.17;;;;;11.05;60.71;103239.91;2034979;28;2744027;-75
2023/02/03 00:49:30;;;;;;;;;1.83;0.50;;;;;11.05;60.85;103234.63;2037024;28;2736760;-75
2023/02/03 00:50:46;;;;;;;;;1.17;1.17;;;;;11.05;60.63;103232.88;2036991;28;2744022;-75
2023/02/03 00:51:59;;;;;;;;;3.17;1.50;;;;;11.06;60.53;103233.78;2013171;28;2750281;-75
2023/02/03 00:53:12;;;;;;;;;2.33;2.33;;;;;11.05;60.81;103235.53;2031970;28;2754475;-75
2023/02/03 00:54:26;;;;;;;;;3.50;1.00;;;;;11.05;60.63;103232.00;2034338;28;2741947;-75
2023/02/03 00:55:39;;;;;;;;;2.33;0.83;;;;;11.04;60.47;103228.47;2013687;28;2748193;-75
2023/02/03 00:56:52;;;;;;;;;1.17;1.17;;;;;11.05;60.79;103224.09;2038329;28;2730553;-75
2023/02/03 00:58:05;;;;;;;;;4.50;1.17;;;;;11.03;60.80;103226.75;2027803;28;2739853;-75
2023/02/03 00:59:18;;;;;;;;;1.50;1.50;;;;;11.03;60.71;103237.28;2020923;28;2752383;-75
2023/02/03 01:00:31;;;;;;;;;1.50;0.50;;;;;11.02;60.56;103224.97;2005677;28;2735718;-75
2023/02/03 01:01:45;;;;;;;;;2.33;1.17;;;;;11.00;60.61;103235.50;2036264;28;2735722;-75
2023/02/03 01:02:58;;;;;;;;;1.00;1.00;;;;;10.99;60.53;103220.56;2028346;28;2725285;-75
2023/02/03 01:04:11;;;;;;;;;0.50;0.50;;;;;11.00;60.49;103216.19;2031633;28;2711737;-75
2023/02/03 01:05:25;;;;;;;;;0.67;0.67;;;;;11.00;60.47;103217.06;2036947;28;2714849;-75
2023/02/03 01:06:39;;;;;;;;;1.00;0.50;;;;;11.00;60.30;103216.19;2037348;28;2727342;-75
2023/02/03 01:07:52;;;;;;;;;0.50;0.50;;;;;11.00;60.64;103211.81;2037846;28;2725290;-75
2023/02/03 01:09:05;;;;;;;;;1.33;1.33;;;;;10.99;60.52;103206.53;2037552;28;2724221;-75
2023/02/03 01:10:19;;;;;;;;;1.67;1.33;;;;;10.99;60.41;103210.03;2036061;28;2750381;-75
2023/02/03 01:11:32;;;;;;;;;1.33;1.33;;;;;10.98;60.32;103213.56;2033477;28;2736775;-75
2023/02/03 01:12:45;;;;;;;;;1.50;0.50;;;;;10.96;60.51;103210.06;2030241;28;2725265;-75
2023/02/03 01:14:00;;;;;;;;;0.67;0.67;;;;;10.96;60.51;103206.53;2030057;28;2724240;-75
2023/02/03 01:15:13;;;;;;;;;1.00;1.00;;;;;10.96;60.16;103204.78;2036560;28;2725266;-75
2023/02/03 01:16:29;;;;;;;;;1.33;0.50;;;;;10.95;60.04;103208.28;2037037;28;2739866;-75
2023/02/03 01:17:42;;;;;;;;;0.00;0.00;;;;;10.93;59.99;103204.75;2029123;28;2725313;-75
2023/02/03 01:18:56;;;;;;;;;1.00;1.00;;;;;10.94;60.33;103206.50;2024695;28;2720073;-75
2023/02/03 01:20:12;;;;;;;;;2.67;0.83;;;;;10.95;60.48;103203.00;2030415;28;2725656;-75
2023/02/03 01:21:25;;;;;;;;;3.83;1.33;;;;;10.94;60.42;103190.72;2036932;28;2740919;-75
2023/02/03 01:22:39;;;;;;;;;0.67;0.67;;;;;10.93;60.27;103201.25;2029595;28;2729433;-75
2023/02/03 01:23:54;;;;;;;;;1.50;1.33;;;;;10.93;60.29;103193.34;2028835;28;2733639;-75
2023/02/03 01:25:07;;;;;;;;;0.50;0.50;;;;;10.91;60.29;103190.72;2029854;28;2724244;-75
2023/02/03 01:26:22;;;;;;;;;1.00;0.50;;;;;10.92;59.94;103192.47;2030311;28;2720082;-75
2023/02/03 01:27:35;;;;;;;;;1.33;0.67;;;;;10.91;60.39;103178.41;2036902;28;2726311;-75
2023/02/03 01:28:57;;;;;;;;;0.00;0.00;;;;;10.92;60.29;103181.94;2033293;28;2727365;-75
2023/02/03 01:30:11;;;;;;;;;2.33;1.33;;;;;10.93;60.80;103178.44;2021014;28;2726332;-75
2023/02/03 01:31:30;;;;;;;;;2.33;0.50;;;;;10.93;60.24;103178.44;2021577;28;2723231;-75
2023/02/03 01:32:43;;;;;;;;;1.00;1.00;;;;;10.91;60.34;103182.81;2023489;28;2729504;-75
2023/02/03 01:33:56;;;;;;;;;2.00;1.33;;;;;10.90;60.38;103178.44;2038151;28;2724220;-75
2023/02/03 01:35:09;;;;;;;;;2.17;1.00;;;;;10.91;60.37;103177.56;2037157;28;2724251;-75
2023/02/03 01:36:25;;;;;;;;;1.33;1.33;;;;;10.91;60.06;103174.94;2036892;28;2746138;-75
2023/02/03 01:37:38;;;;;;;;;4.00;1.00;;;;;10.90;60.44;103165.28;2035892;28;2727337;-75
2023/02/03 01:38:52;;;;;;;;;2.00;0.00;;;;;10.90;60.81;103176.69;2020378;28;2735715;-75
2023/02/03 01:40:06;;;;;;;;;1.50;0.67;;;;;10.91;60.37;103177.56;2013742;28;2736189;-75
2023/02/03 01:41:25;;;;;;;;;2.67;1.83;;;;;10.93;60.51;103180.19;2021568;28;2746115;-75
2023/02/03 01:42:38;;;;;;;;;3.33;2.33;;;;;10.93;60.32;103178.44;2027917;28;2754423;-75
2023/02/03 01:43:53;;;;;;;;;4.17;2.83;;;;;10.95;60.17;103176.69;1995901;28;2739881;-75
2023/02/03 01:45:08;;;;;;;;;2.67;1.67;;;;;10.95;60.31;103181.97;1998824;28;2739844;-75
2023/02/03 01:46:30;;;;;;;;;4.33;3.83;;;;;10.96;60.50;103178.47;2013210;28;2750777;-75
2023/02/03 01:47:57;;;;;;;;;5.33;2.50;;;;;10.95;60.25;103171.44;2004765;28;2754420;-75
2023/02/03 01:49:17;;;;;;;;;2.67;2.67;;;;;10.95;60.34;103176.69;2005417;28;2746137;-75
2023/02/03 01:50:35;;;;;;;;;2.50;2.00;;;;;10.96;60.32;103178.47;2004814;28;2751319;-75
2023/02/03 01:51:49;;;;;;;;;2.00;2.00;;;;;10.96;60.24;103172.31;2028636;28;2744004;-75
2023/02/03 01:53:07;;;;;;;;;2.83;2.00;;;;;10.97;60.31;103172.31;2028793;28;2745070;-75
2023/02/03 01:54:28;;;;;;;;;1.83;1.33;;;;;10.96;59.91;103156.53;2021200;28;2727380;-75
2023/02/03 01:55:45;;;;;;;;;0.67;0.67;;;;;10.97;60.22;103158.28;2027661;28;2728429;-75
2023/02/03 01:57:05;;;;;;;;;2.00;2.00;;;;;10.97;60.09;103160.91;2028463;28;2731512;-75
2023/02/03 01:58:30;;;;;;;;;3.33;1.50;;;;;10.96;60.38;103146.91;2031163;28;2735733;-75
2023/02/03 01:59:44;;;;;;;;;1.00;1.00;;;;;10.95;60.11;103137.22;2028642;28;2722141;-75
2023/02/03 02:00:57;;;;;;;;;0.50;0.17;;;;;10.96;59.77;103133.72;2030400;28;2724239;-75
2023/02/03 02:02:12;;;;;;;;;1.00;1.00;;;;;10.97;60.05;103138.09;2028176;28;2728422;-75
2023/02/03 02:03:45;;;;;;;;;1.33;1.00;;;;;10.97;60.03;103130.22;2026548;28;2725792;-75
2023/02/03 02:05:11;;;;;;;;;1.00;1.00;;;;;10.97;60.27;103132.84;2037829;28;2723199;-75
2023/02/03 02:06:25;;;;;;;;;1.00;1.00;;;;;10.96;59.83;103133.72;2037179;28;2725270;-75
2023/02/03 02:07:40;;;;;;;;;2.00;1.00;;;;;10.94;59.90;103132.81;2037754;28;2731563;-75
2023/02/03 02:08:54;;;;;;;;;0.67;0.50;;;;;10.93;60.01;103133.72;2028831;28;2729457;-75
2023/02/03 02:10:08;;;;;;;;;2.33;1.00;;;;;10.93;59.96;103130.19;2028982;28;2730477;-75
2023/02/03 02:11:21;;;;;;;;;0.67;0.67;;;;;10.94;60.02;103135.47;2032813;28;2724240;-75
2023/02/03 02:12:34;;;;;;;;;1.50;1.50;;;;;10.92;59.91;103134.56;2036868;28;2739857;-75
2023/02/03 02:13:51;;;;;;;;;2.00;2.00;;;;;10.92;59.66;103129.31;2037540;28;2729440;-75
2023/02/03 02:15:05;;;;;;;;;1.00;1.00;;;;;10.93;59.81;103141.59;2038212;28;2716938;-75
2023/02/03 02:16:26;;;;;;;;;0.83;0.83;;;;;10.93;59.75;103140.72;2037764;28;2724224;-75
2023/02/03 02:17:49;;;;;;;;;1.67;1.33;;;;;10.94;59.57;103147.75;2037152;28;2734118;-75
2023/02/03 02:19:39;;;;;;;;;1.50;1.50;;;;;10.93;59.79;103149.50;2027804;28;2734699;-75
2023/02/03 02:21:30;;;;;;;;;1.50;1.33;;;;;10.93;59.71;103154.75;2019235;28;2728411;-75
2023/02/03 02:23:04;;;;;;;;;2.50;1.33;;;;;10.91;59.76;103153.88;2026537;28;2742333;-75
2023/02/03 02:24:36;;;;;;;;;1.00;1.00;;;;;10.90;59.33;103162.63;2020183;28;2735683;-75
2023/02/03 02:25:55;;;;;;;;;1.83;1.83;;;;;10.90;59.74;103152.09;2024443;28;2731619;-75
2023/02/03 02:27:27;;;;;;;;;2.33;0.83;;;;;10.90;59.47;103154.75;2036276;28;2742977;-75
2023/02/03 02:28:43;;;;;;;;;4.00;1.00;;;;;10.90;59.60;103157.38;2036478;28;2722156;-75
2023/02/03 02:30:15;;;;;;;;;1.00;0.33;;;;;10.91;59.75;103153.88;2033437;28;2729433;-75
2023/02/03 02:32:04;;;;;;;;;2.00;1.83;;;;;10.91;59.36;103149.47;2019525;28;2742297;-75
2023/02/03 02:33:34;;;;;;;;;1.50;1.00;;;;;10.90;59.51;103158.25;2004983;28;2741936;-75
2023/02/03 02:34:56;;;;;;;;;1.33;1.33;;;;;10.90;59.48;103154.75;2027097;28;2744019;-75
2023/02/03 02:36:33;;;;;;;;;1.83;1.83;;;;;10.90;59.43;103155.63;2031403;28;2734652;-75
2023/02/03 02:37:54;;;;;;;;;1.17;1.17;;;;;10.90;59.42;103146.84;2014656;28;2722193;-75
2023/02/03 02:39:13;;;;;;;;;1.83;1.83;;;;;10.90;59.32;103152.09;2037213;28;2739857;-75
2023/02/03 02:41:04;;;;;;;;;2.00;2.00;;;;;10.88;59.40;103149.47;2035917;28;2745072;-75
2023/02/03 02:42:29;;;;;;;;;0.33;0.33;;;;;10.88;59.29;103138.06;2014113;28;2733611;-75
2023/02/03 02:44:15;;;;;;;;;1.50;1.00;;;;;10.88;59.14;103133.69;2032610;28;2719019;-75
2023/02/03 02:45:57;;;;;;;;;0.33;0.00;;;;;10.88;59.17;103135.44;2029507;28;2722137;-75
2023/02/03 02:47:19;;;;;;;;;1.33;1.33;;;;;10.87;59.13;103131.94;2026451;28;2729444;-75
2023/02/03 02:48:39;;;;;;;;;1.00;1.00;;;;;10.88;58.98;103135.44;2019080;28;2726344;-75
2023/02/03 02:50:15;;;;;;;;;0.83;0.83;;;;;10.87;59.00;103133.66;2022392;28;2726315;-75
2023/02/03 02:51:31;;;;;;;;;1.33;0.00;;;;;10.86;58.77;103131.94;2020294;28;2731521;-75
2023/02/03 02:52:48;;;;;;;;;1.00;1.00;;;;;10.84;58.73;103126.66;2024904;28;2725655;-75
2023/02/03 02:54:06;;;;;;;;;1.33;1.33;;;;;10.83;58.84;103132.78;2028270;28;2726831;-75
2023/02/03 02:55:26;;;;;;;;;2.17;2.00;;;;;10.84;58.93;103136.31;2011496;28;2739861;-75
2023/02/03 02:56:42;;;;;;;;;1.00;1.00;;;;;10.82;58.46;103133.66;2012370;28;2737773;-75
2023/02/03 02:58:00;;;;;;;;;1.67;1.00;;;;;10.80;58.76;103138.91;2036185;28;2731981;-75
2023/02/03 02:59:14;;;;;;;;;1.00;1.00;;;;;10.79;58.66;103131.88;2036669;28;2728499;-75
2023/02/03 03:00:32;;;;;;;;;1.00;1.00;;;;;10.79;58.55;103138.91;2038374;28;2711756;-75
2023/02/03 03:01:46;;;;;;;;;2.00;2.00;;;;;10.76;58.45;103134.53;2027386;28;2741933;-75
2023/02/03 03:03:13;;;;;;;;;1.33;1.00;;;;;10.75;58.50;103143.28;1998489;28;2722145;-75
2023/02/03 03:04:29;;;;;;;;;2.00;2.00;;;;;10.72;58.48;103138.00;2028501;28;2737754;-75
2023/02/03 03:05:48;;;;;;;;;2.50;1.50;;;;;10.70;58.48;103134.47;2028785;28;2733662;-75
2023/02/03 03:07:17;;;;;;;;;2.33;0.67;;;;;10.69;58.50;103132.75;2030449;28;2722169;-75
2023/02/03 03:08:40;;;;;;;;;1.00;1.00;;;;;10.68;58.55;103137.13;2036957;28;2729439;-75
2023/02/03 03:10:01;;;;;;;;;1.17;1.17;;;;;10.67;58.44;103137.09;2037224;28;2725287;-75
2023/02/03 03:11:16;;;;;;;;;3.00;2.17;;;;;10.66;58.60;103144.13;2029166;28;2741921;-75
2023/02/03 03:12:41;;;;;;;;;1.00;1.00;;;;;10.64;58.56;103143.19;2006501;28;2725334;-75
2023/02/03 03:13:55;;;;;;;;;1.83;1.83;;;;;10.63;58.73;103145.84;2028840;28;2733622;-75
2023/02/03 03:15:16;;;;;;;;;2.83;1.50;;;;;10.62;58.50;103147.59;2036244;28;2745065;-75
2023/02/03 03:16:33;;;;;;;;;2.00;2.00;;;;;10.63;58.38;103145.84;2037671;28;2750352;-75
2023/02/03 03:18:16;;;;;;;;;1.83;1.83;;;;;10.64;59.10;103155.50;2015644;28;2736048;-75
2023/02/03 03:19:34;;;;;;;;;1.17;1.17;;;;;10.63;58.52;103154.63;2001679;28;2731503;-75
2023/02/03 03:20:51;;;;;;;;;1.33;1.33;;;;;10.61;58.86;103161.63;2023262;28;2741940;-75
2023/02/03 03:22:10;;;;;;;;;1.17;1.17;;;;;10.63;58.51;103164.25;2031787;28;2725267;-75
2023/02/03 03:23:30;;;;;;;;;1.67;1.67;;;;;10.63;58.54;103169.50;2039321;28;2728427;-75
2023/02/03 03:24:51;;;;;;;;;2.00;2.00;;;;;10.62;58.47;103171.25;2029708;28;2741956;-75
2023/02/03 03:26:34;;;;;;;;;1.00;1.00;;;;;10.64;58.84;103184.44;2007121;28;2731532;-75
2023/02/03 03:27:54;;;;;;;;;2.00;1.00;;;;;10.63;58.50;103180.91;2030929;28;2726776;-75
2023/02/03 03:29:18;;;;;;;;;2.67;1.00;;;;;10.62;58.66;103183.53;2013502;28;2722141;-75
2023/02/03 03:30:35;;;;;;;;;1.50;1.00;;;;;10.60;58.60;103185.25;2038298;28;2725506;-75
2023/02/03 03:31:49;;;;;;;;;1.50;1.50;;;;;10.61;58.45;103185.28;2037848;28;2741936;-75
2023/02/03 03:33:04;;;;;;;;;2.67;1.00;;;;;10.61;58.45;103190.56;2038558;28;2729933;-75
2023/02/03 03:34:18;;;;;;;;;1.00;1.00;;;;;10.62;58.52;103194.06;2030249;28;2728399;-75
2023/02/03 03:35:45;;;;;;;;;1.00;1.00;;;;;10.62;58.50;103199.31;2031750;28;2725319;-75
2023/02/03 03:37:42;;;;;;;;;1.83;1.83;;;;;10.62;58.48;103200.19;2036964;28;2752358;-75
2023/02/03 03:39:08;;;;;;;;;1.50;1.33;;;;;10.63;58.39;103206.31;2029212;28;2727389;-75
2023/02/03 03:40:38;;;;;;;;;3.00;1.67;;;;;10.65;58.72;103210.72;2024439;28;2733722;-75
2023/02/03 03:42:06;;;;;;;;;1.67;1.33;;;;;10.66;58.58;103216.88;2009404;28;2735697;-75
2023/02/03 03:43:27;;;;;;;;;1.83;1.00;;;;;10.66;58.63;103224.78;2008856;28;2742974;-75
2023/02/03 03:44:51;;;;;;;;;3.00;1.33;;;;;10.66;58.26;103223.03;2020983;28;2737754;-75
2023/02/03 03:46:13;;;;;;;;;1.33;1.00;;;;;10.64;58.46;103234.41;2030618;28;2717316;-75
2023/02/03 03:47:34;;;;;;;;;1.83;1.83;;;;;10.66;58.46;103237.91;2029860;28;2727334;-75
2023/02/03 03:48:53;;;;;;;;;1.50;1.00;;;;;10.65;58.33;103234.41;2007145;28;2729440;-75
2023/02/03 03:50:11;;;;;;;;;2.00;2.00;;;;;10.65;58.54;103241.41;2029093;28;2746086;-75
2023/02/03 03:51:36;;;;;;;;;0.00;0.00;;;;;10.65;58.55;103239.66;2007714;28;2729545;-75
2023/02/03 03:52:53;;;;;;;;;2.00;2.00;;;;;10.66;58.69;103236.19;2030029;28;2743999;-75
2023/02/03 03:54:14;;;;;;;;;2.00;1.50;;;;;10.68;58.60;103238.81;2030086;28;2734660;-75
2023/02/03 03:55:31;;;;;;;;;2.83;1.83;;;;;10.68;58.66;103236.19;2030002;28;2740875;-75
2023/02/03 03:56:57;;;;;;;;;1.00;1.00;;;;;10.68;58.44;103229.16;1999367;28;2724256;-75
2023/02/03 03:58:19;;;;;;;;;3.17;2.00;;;;;10.68;58.35;103223.03;2024778;28;2732557;-75
2023/02/03 03:59:39;;;;;;;;;2.67;1.00;;;;;10.68;58.61;103230.91;2006053;28;2733642;-75
2023/02/03 04:00:56;;;;;;;;;1.00;1.00;;;;;10.68;58.29;103231.81;2036140;28;2732628;-75
2023/02/03 04:02:12;;;;;;;;;1.67;1.50;;;;;10.67;58.05;103234.41;2035715;28;2724228;-75
2023/02/03 04:03:40;;;;;;;;;1.00;1.00;;;;;10.68;58.54;103225.66;2030277;28;2711742;-75
2023/02/03 04:04:57;;;;;;;;;5.67;1.33;;;;;10.67;58.51;103222.13;2032754;28;2740926;-75
2023/02/03 04:06:11;;;;;;;;;3.00;1.50;;;;;10.69;58.39;103222.16;2034613;28;2723219;-75
2023/02/03 04:07:45;;;;;;;;;1.00;1.00;;;;;10.70;58.58;103223.91;2030258;28;2729469;-75
2023/02/03 04:09:01;;;;;;;;;2.83;2.00;;;;;10.70;58.81;103208.13;2029647;28;2739845;-75
2023/02/03 04:10:24;;;;;;;;;1.00;1.00;;;;;10.71;58.84;103206.38;2011999;28;2724251;-75
2023/02/03 04:13:11;;;;;;;;;1.33;1.33;;;;;10.72;58.20;103206.38;2038408;28;2727853;-75
2023/02/03 04:14:24;;;;;;;;;0.50;0.00;;;;;10.72;58.38;103208.16;2036915;28;2727453;-75
2023/02/03 04:15:37;;;;;;;;;1.00;0.83;;;;;10.71;58.38;103209.00;2038058;28;2726319;-75
2023/02/03 04:16:50;;;;;;;;;2.00;2.00;;;;;10.69;58.66;103201.97;2036597;28;2744019;-75
2023/02/03 04:18:04;;;;;;;;;2.00;1.00;;;;;10.71;58.40;103204.63;2012990;28;2728426;-75
2023/02/03 04:19:18;;;;;;;;;1.00;1.00;;;;;10.71;58.84;103204.63;2029515;28;2741916;-75
2023/02/03 04:20:31;;;;;;;;;2.00;0.00;;;;;10.71;58.83;103188.84;2036527;28;2727376;-75
2023/02/03 04:21:45;;;;;;;;;2.00;2.00;;;;;10.72;58.53;103189.75;2028893;28;2737809;-75
2023/02/03 04:22:58;;;;;;;;;1.33;1.33;;;;;10.72;58.63;103185.34;2029098;28;2727350;-75
2023/02/03 04:24:12;;;;;;;;;2.00;2.00;;;;;10.72;58.85;103181.84;2024132;28;2735679;-75
2023/02/03 04:25:25;;;;;;;;;2.83;1.33;;;;;10.73;58.54;103180.97;2006462;28;2750300;-75
2023/02/03 04:26:38;;;;;;;;;1.83;1.83;;;;;10.73;58.29;103176.59;2035869;28;2738802;-75
2023/02/03 04:27:51;;;;;;;;;1.50;1.50;;;;;10.72;58.45;103172.19;2037420;28;2725273;-75
2023/02/03 04:29:05;;;;;;;;;1.83;1.83;;;;;10.73;58.19;103175.69;2034268;28;2742443;-75
2023/02/03 04:30:18;;;;;;;;;5.00;3.00;;;;;10.73;58.61;103175.69;2029878;28;2727405;-75
2023/02/03 04:31:31;;;;;;;;;3.50;3.00;;;;;10.74;58.35;103178.34;2006128;28;2746114;-75
2023/02/03 04:32:45;;;;;;;;;2.83;2.00;;;;;10.73;58.16;103184.47;2029864;28;2723210;-75
2023/02/03 04:33:58;;;;;;;;;1.50;1.00;;;;;10.72;58.08;103174.81;2029686;28;2728384;-75
2023/02/03 04:35:12;;;;;;;;;1.00;1.00;;;;;10.71;57.97;103183.59;2029990;28;2720078;-75
2023/02/03 04:36:26;;;;;;;;;2.00;1.83;;;;;10.71;58.23;103186.22;2030225;28;2722164;-75
2023/02/03 04:37:39;;;;;;;;;2.00;2.00;;;;;10.71;58.28;103186.22;2031231;28;2739857;-75
2023/02/03 04:38:52;;;;;;;;;2.33;1.33;;;;;10.71;58.23;103182.72;2014618;28;2727393;-75
2023/02/03 04:40:06;;;;;;;;;1.17;1.17;;;;;10.69;58.02;103174.81;2013677;28;2731540;-75
2023/02/03 04:41:20;;;;;;;;;2.50;2.00;;;;;10.68;58.20;103176.56;2037020;28;2737795;-75
2023/02/03 04:42:36;;;;;;;;;1.00;1.00;;;;;10.67;58.32;103180.06;2038126;28;2731909;-75
2023/02/03 04:43:49;;;;;;;;;2.00;1.17;;;;;10.68;58.51;103180.94;2034093;28;2733583;-76
2023/02/03 04:45:03;;;;;;;;;2.00;1.17;;;;;10.67;58.53;103173.91;2035632;28;2737800;-75
2023/02/03 04:46:17;;;;;;;;;3.83;1.17;;;;;10.68;58.13;103175.69;2036828;28;2729433;-75
2023/02/03 04:47:30;;;;;;;;;1.83;1.00;;;;;10.68;58.39;103181.81;2038017;28;2724735;-75
2023/02/03 04:48:44;;;;;;;;;1.00;1.00;;;;;10.69;58.40;103180.09;2034156;28;2720126;-75
2023/02/03 04:49:57;;;;;;;;;1.00;1.00;;;;;10.69;58.60;103177.44;2035110;28;2725397;-75
2023/02/03 04:51:10;;;;;;;;;1.83;1.83;;;;;10.68;58.01;103180.94;2033412;28;2739837;-75
2023/02/03 04:52:23;;;;;;;;;2.00;2.00;;;;;10.69;58.07;103180.94;2035432;28;2737786;-75
2023/02/03 04:53:37;;;;;;;;;1.67;1.00;;;;;10.69;58.19;103175.69;2038232;28;2725255;-75
2023/02/03 04:54:50;;;;;;;;;0.83;0.33;;;;;10.70;58.26;103181.81;2038236;28;2727361;-75
2023/02/03 04:56:03;;;;;;;;;2.00;2.00;;;;;10.69;58.21;103177.44;2028485;28;2741940;-75
2023/02/03 04:57:17;;;;;;;;;0.00;0.00;;;;;10.71;58.14;103177.44;2008011;28;2727354;-75
2023/02/03 04:58:30;;;;;;;;;2.00;1.00;;;;;10.69;57.97;103180.94;2036686;28;2731536;-75
2023/02/03 04:59:43;;;;;;;;;1.67;1.67;;;;;10.67;57.95;103180.06;2029589;28;2724240;-75
2023/02/03 05:00:56;;;;;;;;;1.00;1.00;;;;;10.68;57.93;103183.56;2029708;28;2725770;-75
2023/02/03 05:02:09;;;;;;;;;1.33;1.17;;;;;10.66;57.86;103187.94;2035680;28;2726812;-75
2023/02/03 05:03:23;;;;;;;;;2.50;1.00;;;;;10.65;57.85;103183.53;2030870;28;2720631;-75
2023/02/03 05:04:36;;;;;;;;;1.33;1.00;;;;;10.65;58.07;103183.53;2037265;28;2730510;-75
2023/02/03 05:05:49;;;;;;;;;2.00;1.00;;;;;10.65;57.98;103184.44;2034599;28;2722134;-75
2023/02/03 05:07:03;;;;;;;;;1.00;1.00;;;;;10.64;58.13;103182.66;2019876;28;2727502;-75
2023/02/03 05:08:16;;;;;;;;;2.17;1.00;;;;;10.64;58.08;103189.69;2014250;28;2724248;-75
2023/02/03 05:09:29;;;;;;;;;1.33;1.00;;;;;10.65;58.20;103202.84;2029952;28;2722152;-76
2023/02/03 05:10:42;;;;;;;;;1.17;1.17;;;;;10.64;58.26;103200.22;2037362;28;2724221;-75
2023/02/03 05:11:55;;;;;;;;;3.00;1.83;;;;;10.65;58.39;103201.97;2036299;28;2726331;-75
2023/02/03 05:13:09;;;;;;;;;1.00;1.00;;;;;10.64;58.31;103198.44;2013331;28;2727860;-75
2023/02/03 05:14:22;;;;;;;;;1.50;1.50;;;;;10.64;58.57;103203.69;2036415;28;2749298;-75
2023/02/03 05:15:35;;;;;;;;;1.00;1.00;;;;;10.65;58.21;103208.09;2037219;28;2727434;-75
2023/02/03 05:16:48;;;;;;;;;2.67;1.00;;;;;10.65;58.41;103215.09;2037667;28;2725279;-75
2023/02/03 05:18:01;;;;;;;;;1.00;1.00;;;;;10.66;58.38;103216.88;2023908;28;2719035;-75
2023/02/03 05:19:14;;;;;;;;;1.50;0.83;;;;;10.67;58.55;103214.25;2033399;28;2722154;-75
2023/02/03 05:20:28;;;;;;;;;1.00;1.00;;;;;10.68;58.64;103217.75;2034563;28;2731520;-75
2023/02/03 05:21:41;;;;;;;;;1.33;1.17;;;;;10.68;58.65;103217.75;2035291;28;2734661;-75
2023/02/03 05:22:54;;;;;;;;;1.17;1.17;;;;;10.68;58.52;103213.38;2027832;28;2725277;-75
2023/02/03 05:24:07;;;;;;;;;2.00;2.00;;;;;10.68;58.35;103208.13;2029466;28;2732568;-75
2023/02/03 05:25:21;;;;;;;;;0.83;0.67;;;;;10.69;58.62;103203.75;2014260;28;2723207;-75
2023/02/03 05:26:34;;;;;;;;;1.83;1.00;;;;;10.68;58.71;103210.75;2034788;28;2728423;-75
2023/02/03 05:27:48;;;;;;;;;0.67;0.17;;;;;10.67;58.56;103210.72;2032290;28;2728394;-75
2023/02/03 05:29:02;;;;;;;;;2.00;2.00;;;;;10.66;58.32;103199.34;2037011;28;2742341;-75
2023/02/03 05:30:15;;;;;;;;;1.00;1.00;;;;;10.66;58.53;103212.50;2037866;28;2725266;-75
2023/02/03 05:31:29;;;;;;;;;1.00;1.00;;;;;10.64;58.73;103208.97;2028717;28;2729445;-75
2023/02/03 05:32:42;;;;;;;;;1.00;1.00;;;;;10.63;58.69;103212.47;2030563;28;2729776;-75
2023/02/03 05:33:55;;;;;;;;;2.00;2.00;;;;;10.63;58.61;103211.59;2028187;28;2724267;-75
2023/02/03 05:35:08;;;;;;;;;2.00;0.50;;;;;10.64;58.36;103213.38;2023563;28;2729428;-75
2023/02/03 05:36:21;;;;;;;;;3.83;2.00;;;;;10.63;59.02;103220.38;2029018;28;2748186;-75
2023/02/03 05:37:35;;;;;;;;;0.67;0.67;;;;;10.63;58.52;103232.63;1997314;28;2729441;-75
2023/02/03 05:38:48;;;;;;;;;1.33;1.33;;;;;10.63;58.46;103230.00;2022321;28;2730479;-75
2023/02/03 05:41:51;;;;;;;;;1.17;1.17;;;;;10.63;58.64;103238.78;2031972;28;2720062;-75
2023/02/03 05:43:04;;;;;;;;;1.00;1.00;;;;;10.64;58.63;103239.66;2038035;28;2725262;-75
2023/02/03 05:44:21;;;;;;;;;3.83;1.33;;;;;10.63;58.84;103238.78;2038023;28;2727373;-75
2023/02/03 05:45:34;;;;;;;;;3.17;2.00;;;;;10.63;58.73;103230.88;1997335;28;2747140;-75
2023/02/03 05:46:48;;;;;;;;;2.00;1.00;;;;;10.63;58.78;103236.16;2001253;28;2722149;-75
2023/02/03 05:48:02;;;;;;;;;1.17;1.17;;;;;10.60;58.58;103230.84;2037690;28;2726730;-75
2023/02/03 05:49:15;;;;;;;;;4.50;2.00;;;;;10.60;58.76;103230.84;2036567;28;2750296;-75
2023/02/03 05:50:32;;;;;;;;;2.00;2.00;;;;;10.61;58.49;103237.00;2012741;28;2746092;-75
2023/02/03 05:51:45;;;;;;;;;3.00;1.00;;;;;10.60;58.72;103237.84;2037247;28;2728407;-75
2023/02/03 05:53:00;;;;;;;;;2.00;2.00;;;;;10.60;58.46;103235.22;2037392;28;2734640;-75
2023/02/03 05:54:13;;;;;;;;;1.00;1.00;;;;;10.60;58.87;103240.50;2030497;28;2729437;-75